Aeroporto :
LOGIN :

Iscrizione | Disclaimer

   EN    FR    IT 

 










Sommario :    VFR   VFR Marginale   IFR   IFR Intensivo   IFR Molto Intensivo
Visibilità : 
Base nubi : 
>= 8 km
>= 3000ft
5 / 8 km
1000 / 3000 ft
1500m / 5 km
500 / 1000 ft
800 / 1500m
200 / 500 ft
< 800m
< 200 ft
Simboli :   Temporali  Nebbia  Neve Forte  Precipitazioni Forti  Vento > 20 kt
SIGMETs :   Varie  Temporali  Ghiacco  Turbolenza  Onda orograficha  Ceneri Vulcaniche







- Altitudine del aeroporto : 870 ft
- Codice IATA : ETZ
- Carte del aeroporto


LFJL - Metz Nancy Lorraine

ULTIMO METAR :
  • 260000Z AUTO 19006KT 9999 FEW011 OVC090 08/07 Q1012 TEMPO BKN007

METARs OBSOLETI :
  • 252330Z AUTO 18006KT 9999 FEW014 SCT040 BKN068 08/07 Q1011 TEMPO BKN007
  • 252300Z AUTO 17006KT 9999 -RA FEW042 OVC088 08/08 Q1011 TEMPO BKN012
  • 252230Z AUTO 17006KT 9999 -RA FEW011 BKN092 OVC120 08/08 Q1011 TEMPO BKN012
  • 252200Z AUTO 18006KT 6000 -RA FEW006/// BKN010/// BKN015/// ///TCU 08/08 Q1011 TEMPO 4000 RA BECMG SCT007 OVC050
  • 252130Z AUTO 18008KT 8000 BKN009/// BKN092/// OVC120/// ///TCU 08/08 Q1011 TEMPO 4000 RA BECMG SCT007 OVC050

TAF TAF LFJL
Valido dal 26 a 00 ore il 27 a 00 ore UTC


252300Z 2600/2624 22010KT 9999 SCT007 OVC055
PROB40
TEMPO 2600/2608 -RA BKN007
PROB40
TEMPO 2613/2618 SHRA FEW040CB BKN050
Nessun NOTAM noto per questo aeroporto.



MetMap, La meteo Aeronautica in un colpo d'occhio ! - Copyright ORBIFLY Dicembre 2007 - Disclaimer

ORBIFLY MET'MAP TEAM :

Programmazione e sviluppo : Alexandra Zaïnal
Concezione e sviluppo : Baudouin d'Aumeries
Co-Programmazione e sviluppo : Marc-Olivier Méhu
Supporto tecnico e logistico : Manuel Goepfert
Aiuto per la traduzione : Arnaldo La Scala

Contatto : metmap@orbifly.com




FONTI E CREDITI :

   NOAA